Johan De Loor 1:00:00 row

13,522

Meters

1:00:00.0

Time

2:13.1

Pace

810

Calories

101

Heart Rate

Average Watts148
Calories Per Hour810
Stroke Rate30

August 14, 2026 08:55:00

Workout
RowErg

Workout Type
Fixed Time

Weight Class
Lwt

Verified
Yes

Ranked
No

Entered
RowPro

Splits

Time Meters Pace Watts Cal/Hr Cal S/M
1:00:00.0 13,522 2:13.1 148 810 810 30 101
2:00.0 439 2:16.6 137 780 26 30 92
4:00.0 443 2:15.4 141 780 26 31 92
6:00.0 451 2:13.0 149 810 27 30 96
8:00.0 449 2:13.6 147 810 27 31 95
10:00.0 449 2:13.6 147 810 27 30 95
12:00.0 452 2:12.7 150 810 27 30 103
14:00.0 453 2:12.4 151 810 27 31 100
16:00.0 454 2:12.1 152 810 27 31 101
18:00.0 457 2:11.2 155 840 28 30 102
20:00.0 456 2:11.5 154 840 28 30 103
22:00.0 458 2:11.0 156 840 28 30 104
24:00.0 457 2:11.2 155 840 28 30 104
26:00.0 456 2:11.5 154 840 28 29 103
28:00.0 454 2:12.1 152 810 27 30 103
30:00.0 453 2:12.4 151 810 27 29 105
32:00.0 452 2:12.7 150 810 27 30 105
34:00.0 453 2:12.4 151 810 27 30 104
36:00.0 450 2:13.3 148 810 27 29 105
38:00.0 450 2:13.3 148 810 27 30 105
40:00.0 452 2:12.7 150 810 27 29 105
42:00.0 449 2:13.6 147 810 27 30 106
44:00.0 452 2:12.7 150 810 27 29 106
46:00.0 449 2:13.6 147 810 27 29 104
48:00.0 449 2:13.6 147 810 27 29 108
50:00.0 449 2:13.6 147 810 27 29 106
52:00.0 447 2:14.2 145 810 27 29 108
54:00.0 447 2:14.2 145 810 27 29 106
56:00.0 446 2:14.5 144 780 26 29 108
58:00.0 446 2:14.5 144 780 26 29 107
1:00:00.0 450 2:13.3 148 810 27 29 108

Click and drag on the graph to zoom in on a section.

Workout Graph

Loading data.